sensor_id;sensor_type;location;lat;lon;timestamp;P1;durP1;ratioP1;P2;durP2;ratioP2
12947;SDS011;6539;49.476;8.484;2022-10-15T00:01:13;2.40;;;1.80;;
12947;SDS011;6539;49.476;8.484;2022-10-15T00:03:44;2.57;;;1.70;;
12947;SDS011;6539;49.476;8.484;2022-10-15T00:06:11;2.80;;;1.50;;
12947;SDS011;6539;49.476;8.484;2022-10-15T00:08:41;1.60;;;1.50;;
12947;SDS011;6539;49.476;8.484;2022-10-15T00:11:17;1.83;;;1.40;;
12947;SDS011;6539;49.476;8.484;2022-10-15T00:13:47;1.57;;;1.47;;
12947;SDS011;6539;49.476;8.484;2022-10-15T00:16:15;1.60;;;1.50;;
12947;SDS011;6539;49.476;8.484;2022-10-15T00:18:50;1.50;;;1.40;;
12947;SDS011;6539;49.476;8.484;2022-10-15T00:21:20;1.70;;;1.60;;
12947;SDS011;6539;49.476;8.484;2022-10-15T00:23:47;1.50;;;1.40;;
12947;SDS011;6539;49.476;8.484;2022-10-15T00:26:14;2.10;;;1.60;;
12947;SDS011;6539;49.476;8.484;2022-10-15T00:28:50;2.20;;;1.50;;
12947;SDS011;6539;49.476;8.484;2022-10-15T00:31:18;1.70;;;1.47;;
12947;SDS011;6539;49.476;8.484;2022-10-15T00:33:48;4.93;;;1.40;;
12947;SDS011;6539;49.476;8.484;2022-10-15T00:36:16;4.67;;;1.50;;
12947;SDS011;6539;49.476;8.484;2022-10-15T00:38:52;1.97;;;1.70;;
12947;SDS011;6539;49.476;8.484;2022-10-15T00:41:26;2.00;;;1.10;;
12947;SDS011;6539;49.476;8.484;2022-10-15T00:46:49;1.23;;;1.13;;
12947;SDS011;6539;49.476;8.484;2022-10-15T00:49:37;2.03;;;1.40;;
12947;SDS011;6539;49.476;8.484;2022-10-15T00:52:13;2.37;;;1.17;;
12947;SDS011;6539;49.476;8.484;2022-10-15T00:55:04;1.30;;;1.20;;
12947;SDS011;6539;49.476;8.484;2022-10-15T00:57:48;0.90;;;0.90;;
12947;SDS011;6539;49.476;8.484;2022-10-15T01:00:15;2.27;;;1.00;;
12947;SDS011;6539;49.476;8.484;2022-10-15T01:02:43;1.77;;;1.30;;
12947;SDS011;6539;49.476;8.484;2022-10-15T01:05:10;2.23;;;1.30;;
12947;SDS011;6539;49.476;8.484;2022-10-15T01:07:41;3.03;;;1.27;;
12947;SDS011;6539;49.476;8.484;2022-10-15T01:10:08;1.70;;;1.10;;
12947;SDS011;6539;49.476;8.484;2022-10-15T01:15:44;2.50;;;1.20;;
12947;SDS011;6539;49.476;8.484;2022-10-15T01:18:23;1.23;;;1.10;;
12947;SDS011;6539;49.476;8.484;2022-10-15T01:29:21;2.13;;;1.47;;
12947;SDS011;6539;49.476;8.484;2022-10-15T01:32:28;1.30;;;0.90;;
12947;SDS011;6539;49.476;8.484;2022-10-15T01:43:33;2.23;;;1.10;;
12947;SDS011;6539;49.476;8.484;2022-10-15T01:46:12;2.37;;;1.30;;
12947;SDS011;6539;49.476;8.484;2022-10-15T01:48:46;2.57;;;1.50;;
12947;SDS011;6539;49.476;8.484;2022-10-15T01:51:17;2.60;;;1.37;;
12947;SDS011;6539;49.476;8.484;2022-10-15T01:53:45;2.60;;;1.40;;
12947;SDS011;6539;49.476;8.484;2022-10-15T01:56:16;1.23;;;1.10;;
12947;SDS011;6539;49.476;8.484;2022-10-15T01:58:47;1.10;;;1.00;;
12947;SDS011;6539;49.476;8.484;2022-10-15T02:01:20;2.87;;;1.13;;
12947;SDS011;6539;49.476;8.484;2022-10-15T02:03:51;2.30;;;1.20;;
12947;SDS011;6539;49.476;8.484;2022-10-15T02:06:24;1.57;;;1.23;;
12947;SDS011;6539;49.476;8.484;2022-10-15T02:14:35;1.53;;;1.20;;
12947;SDS011;6539;49.476;8.484;2022-10-15T02:17:30;3.50;;;1.00;;
12947;SDS011;6539;49.476;8.484;2022-10-15T02:20:05;1.47;;;1.20;;
12947;SDS011;6539;49.476;8.484;2022-10-15T02:22:51;2.27;;;1.03;;
12947;SDS011;6539;49.476;8.484;2022-10-15T02:25:28;4.57;;;1.20;;
12947;SDS011;6539;49.476;8.484;2022-10-15T02:27:59;3.37;;;1.13;;
12947;SDS011;6539;49.476;8.484;2022-10-15T02:30:31;1.33;;;1.13;;
12947;SDS011;6539;49.476;8.484;2022-10-15T02:32:58;1.30;;;1.20;;
12947;SDS011;6539;49.476;8.484;2022-10-15T02:35:25;1.77;;;1.40;;
12947;SDS011;6539;49.476;8.484;2022-10-15T02:37:52;3.10;;;1.30;;
12947;SDS011;6539;49.476;8.484;2022-10-15T02:40:26;1.30;;;1.20;;
12947;SDS011;6539;49.476;8.484;2022-10-15T02:42:56;1.93;;;0.97;;
12947;SDS011;6539;49.476;8.484;2022-10-15T02:45:23;1.30;;;1.00;;
12947;SDS011;6539;49.476;8.484;2022-10-15T02:47:51;1.33;;;1.20;;
12947;SDS011;6539;49.476;8.484;2022-10-15T02:50:17;1.67;;;1.07;;
12947;SDS011;6539;49.476;8.484;2022-10-15T02:52:43;2.73;;;1.27;;
12947;SDS011;6539;49.476;8.484;2022-10-15T02:55:08;1.37;;;1.13;;
12947;SDS011;6539;49.476;8.484;2022-10-15T02:57:37;2.83;;;1.20;;
12947;SDS011;6539;49.476;8.484;2022-10-15T03:00:03;1.93;;;1.20;;
12947;SDS011;6539;49.476;8.484;2022-10-15T03:02:30;1.67;;;1.10;;
12947;SDS011;6539;49.476;8.484;2022-10-15T03:04:56;1.80;;;1.20;;
12947;SDS011;6539;49.476;8.484;2022-10-15T03:07:21;1.97;;;1.20;;
12947;SDS011;6539;49.476;8.484;2022-10-15T03:09:47;1.63;;;1.20;;
12947;SDS011;6539;49.476;8.484;2022-10-15T03:12:13;4.63;;;1.00;;
12947;SDS011;6539;49.476;8.484;2022-10-15T03:14:39;1.13;;;1.00;;
12947;SDS011;6539;49.476;8.484;2022-10-15T03:17:07;1.60;;;1.00;;
12947;SDS011;6539;49.476;8.484;2022-10-15T03:19:33;3.67;;;1.20;;
12947;SDS011;6539;49.476;8.484;2022-10-15T03:22:02;1.37;;;1.27;;
12947;SDS011;6539;49.476;8.484;2022-10-15T03:24:27;3.13;;;1.30;;
12947;SDS011;6539;49.476;8.484;2022-10-15T03:26:53;0.97;;;0.87;;
12947;SDS011;6539;49.476;8.484;2022-10-15T03:29:19;3.13;;;1.07;;
12947;SDS011;6539;49.476;8.484;2022-10-15T03:31:49;1.23;;;1.10;;
12947;SDS011;6539;49.476;8.484;2022-10-15T03:34:16;1.60;;;1.00;;
12947;SDS011;6539;49.476;8.484;2022-10-15T03:36:44;1.90;;;1.10;;
12947;SDS011;6539;49.476;8.484;2022-10-15T03:39:12;3.00;;;1.00;;
12947;SDS011;6539;49.476;8.484;2022-10-15T03:41:38;3.23;;;1.03;;
12947;SDS011;6539;49.476;8.484;2022-10-15T03:44:07;3.47;;;1.30;;
12947;SDS011;6539;49.476;8.484;2022-10-15T03:46:34;4.93;;;1.40;;
12947;SDS011;6539;49.476;8.484;2022-10-15T03:49:02;1.17;;;0.93;;
12947;SDS011;6539;49.476;8.484;2022-10-15T03:51:28;1.73;;;1.17;;
12947;SDS011;6539;49.476;8.484;2022-10-15T03:53:54;2.20;;;1.07;;
12947;SDS011;6539;49.476;8.484;2022-10-15T03:56:20;2.30;;;0.90;;
12947;SDS011;6539;49.476;8.484;2022-10-15T03:58:46;1.50;;;0.83;;
12947;SDS011;6539;49.476;8.484;2022-10-15T04:01:18;1.20;;;1.10;;
12947;SDS011;6539;49.476;8.484;2022-10-15T04:03:44;2.37;;;0.90;;
12947;SDS011;6539;49.476;8.484;2022-10-15T04:06:10;1.20;;;0.80;;
12947;SDS011;6539;49.476;8.484;2022-10-15T04:08:39;1.17;;;1.00;;
12947;SDS011;6539;49.476;8.484;2022-10-15T04:11:04;4.93;;;1.10;;
12947;SDS011;6539;49.476;8.484;2022-10-15T04:13:33;1.90;;;0.80;;
12947;SDS011;6539;49.476;8.484;2022-10-15T04:15:59;1.13;;;1.00;;
12947;SDS011;6539;49.476;8.484;2022-10-15T04:18:24;1.20;;;1.00;;
12947;SDS011;6539;49.476;8.484;2022-10-15T04:20:50;1.00;;;0.80;;
12947;SDS011;6539;49.476;8.484;2022-10-15T04:23:16;1.70;;;0.83;;
12947;SDS011;6539;49.476;8.484;2022-10-15T04:25:47;2.03;;;0.70;;
12947;SDS011;6539;49.476;8.484;2022-10-15T04:28:13;0.70;;;0.70;;
12947;SDS011;6539;49.476;8.484;2022-10-15T04:30:39;0.80;;;0.80;;
12947;SDS011;6539;49.476;8.484;2022-10-15T04:33:05;0.60;;;0.60;;
12947;SDS011;6539;49.476;8.484;2022-10-15T04:35:33;0.63;;;0.63;;
12947;SDS011;6539;49.476;8.484;2022-10-15T04:38:00;1.90;;;0.80;;
12947;SDS011;6539;49.476;8.484;2022-10-15T04:40:28;0.70;;;0.63;;
12947;SDS011;6539;49.476;8.484;2022-10-15T04:42:54;1.00;;;0.67;;
12947;SDS011;6539;49.476;8.484;2022-10-15T04:45:22;2.13;;;0.87;;
12947;SDS011;6539;49.476;8.484;2022-10-15T04:47:50;0.50;;;0.50;;
12947;SDS011;6539;49.476;8.484;2022-10-15T04:50:18;0.90;;;0.70;;
12947;SDS011;6539;49.476;8.484;2022-10-15T04:52:46;0.53;;;0.53;;
12947;SDS011;6539;49.476;8.484;2022-10-15T04:55:12;1.07;;;0.70;;
12947;SDS011;6539;49.476;8.484;2022-10-15T04:57:38;1.97;;;0.90;;
12947;SDS011;6539;49.476;8.484;2022-10-15T05:00:08;2.13;;;0.90;;
12947;SDS011;6539;49.476;8.484;2022-10-15T05:02:35;1.10;;;1.00;;
12947;SDS011;6539;49.476;8.484;2022-10-15T05:05:01;1.10;;;1.00;;
12947;SDS011;6539;49.476;8.484;2022-10-15T05:07:27;0.90;;;0.90;;
12947;SDS011;6539;49.476;8.484;2022-10-15T05:09:53;2.43;;;1.03;;
12947;SDS011;6539;49.476;8.484;2022-10-15T05:12:19;2.00;;;0.90;;
12947;SDS011;6539;49.476;8.484;2022-10-15T05:14:45;0.80;;;0.80;;
12947;SDS011;6539;49.476;8.484;2022-10-15T05:17:11;1.17;;;0.83;;
12947;SDS011;6539;49.476;8.484;2022-10-15T05:19:36;0.80;;;0.80;;
12947;SDS011;6539;49.476;8.484;2022-10-15T05:22:02;2.20;;;1.07;;
12947;SDS011;6539;49.476;8.484;2022-10-15T05:24:28;4.37;;;1.57;;
12947;SDS011;6539;49.476;8.484;2022-10-15T05:26:57;2.03;;;1.00;;
12947;SDS011;6539;49.476;8.484;2022-10-15T05:29:25;1.40;;;1.27;;
12947;SDS011;6539;49.476;8.484;2022-10-15T05:31:53;2.17;;;0.90;;
12947;SDS011;6539;49.476;8.484;2022-10-15T05:34:23;0.73;;;0.73;;
12947;SDS011;6539;49.476;8.484;2022-10-15T05:36:51;0.70;;;0.70;;
12947;SDS011;6539;49.476;8.484;2022-10-15T05:39:19;1.13;;;1.03;;
12947;SDS011;6539;49.476;8.484;2022-10-15T05:41:45;0.97;;;0.93;;
12947;SDS011;6539;49.476;8.484;2022-10-15T05:44:13;2.27;;;1.03;;
12947;SDS011;6539;49.476;8.484;2022-10-15T05:46:39;1.50;;;1.40;;
12947;SDS011;6539;49.476;8.484;2022-10-15T05:49:07;1.30;;;1.20;;
12947;SDS011;6539;49.476;8.484;2022-10-15T05:51:33;2.47;;;1.40;;
12947;SDS011;6539;49.476;8.484;2022-10-15T05:53:59;2.07;;;1.20;;
12947;SDS011;6539;49.476;8.484;2022-10-15T05:56:25;2.03;;;1.30;;
12947;SDS011;6539;49.476;8.484;2022-10-15T05:58:53;1.27;;;1.17;;
12947;SDS011;6539;49.476;8.484;2022-10-15T06:01:23;3.03;;;1.20;;
12947;SDS011;6539;49.476;8.484;2022-10-15T06:03:51;1.00;;;1.00;;
12947;SDS011;6539;49.476;8.484;2022-10-15T06:06:21;1.97;;;1.20;;
12947;SDS011;6539;49.476;8.484;2022-10-15T06:08:51;1.03;;;0.87;;
12947;SDS011;6539;49.476;8.484;2022-10-15T06:11:18;0.93;;;0.90;;
12947;SDS011;6539;49.476;8.484;2022-10-15T06:13:47;1.10;;;0.90;;
12947;SDS011;6539;49.476;8.484;2022-10-15T06:16:15;2.57;;;0.80;;
12947;SDS011;6539;49.476;8.484;2022-10-15T06:18:42;0.90;;;0.73;;
12947;SDS011;6539;49.476;8.484;2022-10-15T06:21:08;0.80;;;0.80;;
12947;SDS011;6539;49.476;8.484;2022-10-15T06:23:35;0.70;;;0.70;;
12947;SDS011;6539;49.476;8.484;2022-10-15T06:26:07;1.40;;;1.20;;
12947;SDS011;6539;49.476;8.484;2022-10-15T06:28:34;2.33;;;1.10;;
12947;SDS011;6539;49.476;8.484;2022-10-15T06:31:04;3.47;;;1.57;;
12947;SDS011;6539;49.476;8.484;2022-10-15T06:33:30;2.30;;;1.20;;
12947;SDS011;6539;49.476;8.484;2022-10-15T06:36:03;2.37;;;1.40;;
12947;SDS011;6539;49.476;8.484;2022-10-15T06:38:33;1.73;;;1.03;;
12947;SDS011;6539;49.476;8.484;2022-10-15T06:40:59;4.57;;;3.10;;
12947;SDS011;6539;49.476;8.484;2022-10-15T06:43:35;2.80;;;2.60;;
12947;SDS011;6539;49.476;8.484;2022-10-15T06:46:04;1.93;;;1.37;;
12947;SDS011;6539;49.476;8.484;2022-10-15T06:48:33;2.60;;;1.60;;
12947;SDS011;6539;49.476;8.484;2022-10-15T06:51:01;3.13;;;1.70;;
12947;SDS011;6539;49.476;8.484;2022-10-15T06:53:30;3.33;;;1.83;;
12947;SDS011;6539;49.476;8.484;2022-10-15T06:55:57;1.50;;;1.33;;
12947;SDS011;6539;49.476;8.484;2022-10-15T06:58:26;1.30;;;1.10;;
12947;SDS011;6539;49.476;8.484;2022-10-15T07:00:58;2.03;;;1.20;;
12947;SDS011;6539;49.476;8.484;2022-10-15T07:03:28;2.80;;;1.30;;
12947;SDS011;6539;49.476;8.484;2022-10-15T07:06:00;5.13;;;1.63;;
12947;SDS011;6539;49.476;8.484;2022-10-15T07:08:34;1.70;;;1.50;;
12947;SDS011;6539;49.476;8.484;2022-10-15T07:11:03;1.70;;;1.33;;
12947;SDS011;6539;49.476;8.484;2022-10-15T07:13:31;3.20;;;1.43;;
12947;SDS011;6539;49.476;8.484;2022-10-15T07:15:56;2.43;;;1.50;;
12947;SDS011;6539;49.476;8.484;2022-10-15T07:18:33;1.60;;;1.40;;
12947;SDS011;6539;49.476;8.484;2022-10-15T07:21:02;2.00;;;1.63;;
12947;SDS011;6539;49.476;8.484;2022-10-15T07:23:30;1.80;;;1.50;;
12947;SDS011;6539;49.476;8.484;2022-10-15T07:25:59;1.30;;;1.20;;
12947;SDS011;6539;49.476;8.484;2022-10-15T07:28:25;1.87;;;1.30;;
12947;SDS011;6539;49.476;8.484;2022-10-15T07:30:59;1.33;;;1.23;;
12947;SDS011;6539;49.476;8.484;2022-10-15T07:33:28;2.30;;;1.33;;
12947;SDS011;6539;49.476;8.484;2022-10-15T07:35:57;1.50;;;1.40;;
12947;SDS011;6539;49.476;8.484;2022-10-15T07:38:26;3.60;;;1.70;;
12947;SDS011;6539;49.476;8.484;2022-10-15T07:40:51;1.40;;;1.30;;
12947;SDS011;6539;49.476;8.484;2022-10-15T07:43:21;1.47;;;1.30;;
12947;SDS011;6539;49.476;8.484;2022-10-15T07:45:47;3.00;;;1.40;;
12947;SDS011;6539;49.476;8.484;2022-10-15T07:48:17;3.30;;;1.50;;
12947;SDS011;6539;49.476;8.484;2022-10-15T07:50:45;1.20;;;1.10;;
12947;SDS011;6539;49.476;8.484;2022-10-15T07:53:11;1.30;;;1.20;;
12947;SDS011;6539;49.476;8.484;2022-10-15T07:55:39;4.20;;;1.60;;
12947;SDS011;6539;49.476;8.484;2022-10-15T07:58:07;2.80;;;1.47;;
12947;SDS011;6539;49.476;8.484;2022-10-15T08:00:36;2.53;;;1.57;;
12947;SDS011;6539;49.476;8.484;2022-10-15T08:03:04;2.03;;;1.43;;
12947;SDS011;6539;49.476;8.484;2022-10-15T08:05:30;4.47;;;1.60;;
12947;SDS011;6539;49.476;8.484;2022-10-15T08:08:01;5.50;;;1.60;;
12947;SDS011;6539;49.476;8.484;2022-10-15T08:10:27;1.33;;;1.23;;
12947;SDS011;6539;49.476;8.484;2022-10-15T08:12:55;2.63;;;1.70;;
12947;SDS011;6539;49.476;8.484;2022-10-15T08:15:21;3.50;;;1.73;;
12947;SDS011;6539;49.476;8.484;2022-10-15T08:17:47;1.80;;;1.70;;
12947;SDS011;6539;49.476;8.484;2022-10-15T08:20:12;1.80;;;1.70;;
12947;SDS011;6539;49.476;8.484;2022-10-15T08:22:38;1.70;;;1.40;;
12947;SDS011;6539;49.476;8.484;2022-10-15T08:25:04;3.00;;;1.70;;
12947;SDS011;6539;49.476;8.484;2022-10-15T08:27:30;2.40;;;1.77;;
12947;SDS011;6539;49.476;8.484;2022-10-15T08:29:57;2.57;;;1.50;;
12947;SDS011;6539;49.476;8.484;2022-10-15T08:32:22;1.87;;;1.40;;
12947;SDS011;6539;49.476;8.484;2022-10-15T08:34:48;2.87;;;1.80;;
12947;SDS011;6539;49.476;8.484;2022-10-15T08:37:14;1.60;;;1.50;;
12947;SDS011;6539;49.476;8.484;2022-10-15T08:39:40;3.60;;;1.60;;
12947;SDS011;6539;49.476;8.484;2022-10-15T08:42:19;4.30;;;2.20;;
12947;SDS011;6539;49.476;8.484;2022-10-15T08:45:21;2.37;;;1.73;;
12947;SDS011;6539;49.476;8.484;2022-10-15T08:47:59;3.27;;;2.07;;
12947;SDS011;6539;49.476;8.484;2022-10-15T08:53:37;2.27;;;2.00;;
12947;SDS011;6539;49.476;8.484;2022-10-15T08:56:19;6.17;;;1.77;;
12947;SDS011;6539;49.476;8.484;2022-10-15T09:07:41;2.87;;;1.80;;
12947;SDS011;6539;49.476;8.484;2022-10-15T09:10:29;1.93;;;1.70;;
12947;SDS011;6539;49.476;8.484;2022-10-15T09:13:23;2.27;;;2.07;;
12947;SDS011;6539;49.476;8.484;2022-10-15T09:16:10;2.03;;;1.80;;
12947;SDS011;6539;49.476;8.484;2022-10-15T09:18:54;2.23;;;1.80;;
12947;SDS011;6539;49.476;8.484;2022-10-15T09:21:25;2.73;;;2.20;;
12947;SDS011;6539;49.476;8.484;2022-10-15T09:23:54;4.47;;;1.70;;
12947;SDS011;6539;49.476;8.484;2022-10-15T09:29:21;4.67;;;2.10;;
12947;SDS011;6539;49.476;8.484;2022-10-15T09:32:11;2.33;;;2.10;;
12947;SDS011;6539;49.476;8.484;2022-10-15T09:37:51;4.27;;;2.20;;
12947;SDS011;6539;49.476;8.484;2022-10-15T09:43:15;4.13;;;2.00;;
12947;SDS011;6539;49.476;8.484;2022-10-15T09:45:52;1.60;;;1.50;;
12947;SDS011;6539;49.476;8.484;2022-10-15T09:48:18;1.97;;;1.70;;
12947;SDS011;6539;49.476;8.484;2022-10-15T09:50:49;3.07;;;1.80;;
12947;SDS011;6539;49.476;8.484;2022-10-15T09:56:56;8.63;;;2.30;;
12947;SDS011;6539;49.476;8.484;2022-10-15T09:59:22;2.73;;;1.73;;
12947;SDS011;6539;49.476;8.484;2022-10-15T10:01:59;3.43;;;1.50;;
12947;SDS011;6539;49.476;8.484;2022-10-15T10:04:31;3.47;;;1.30;;
12947;SDS011;6539;49.476;8.484;2022-10-15T10:07:03;1.20;;;1.10;;
12947;SDS011;6539;49.476;8.484;2022-10-15T10:09:32;2.70;;;1.50;;
12947;SDS011;6539;49.476;8.484;2022-10-15T10:12:04;1.53;;;1.30;;
12947;SDS011;6539;49.476;8.484;2022-10-15T10:14:45;1.33;;;1.20;;
12947;SDS011;6539;49.476;8.484;2022-10-15T10:17:22;0.90;;;0.90;;
12947;SDS011;6539;49.476;8.484;2022-10-15T10:22:40;2.27;;;1.00;;
12947;SDS011;6539;49.476;8.484;2022-10-15T10:27:54;2.43;;;1.30;;
12947;SDS011;6539;49.476;8.484;2022-10-15T10:30:25;2.37;;;1.40;;
12947;SDS011;6539;49.476;8.484;2022-10-15T10:32:57;1.10;;;1.10;;
12947;SDS011;6539;49.476;8.484;2022-10-15T10:35:32;2.50;;;0.90;;
12947;SDS011;6539;49.476;8.484;2022-10-15T10:40:55;1.60;;;1.33;;
12947;SDS011;6539;49.476;8.484;2022-10-15T10:43:31;3.23;;;1.20;;
12947;SDS011;6539;49.476;8.484;2022-10-15T10:46:18;2.00;;;1.10;;
12947;SDS011;6539;49.476;8.484;2022-10-15T10:48:49;3.33;;;1.20;;
12947;SDS011;6539;49.476;8.484;2022-10-15T10:51:19;4.80;;;1.40;;
12947;SDS011;6539;49.476;8.484;2022-10-15T10:53:54;1.30;;;1.00;;
12947;SDS011;6539;49.476;8.484;2022-10-15T10:56:34;1.23;;;1.07;;
12947;SDS011;6539;49.476;8.484;2022-10-15T11:02:00;1.67;;;1.17;;
12947;SDS011;6539;49.476;8.484;2022-10-15T11:04:29;2.13;;;1.10;;
12947;SDS011;6539;49.476;8.484;2022-10-15T11:09:46;2.73;;;1.40;;
12947;SDS011;6539;49.476;8.484;2022-10-15T11:15:51;2.93;;;1.30;;
12947;SDS011;6539;49.476;8.484;2022-10-15T11:18:35;3.60;;;1.37;;
12947;SDS011;6539;49.476;8.484;2022-10-15T11:21:48;1.97;;;1.13;;
12947;SDS011;6539;49.476;8.484;2022-10-15T11:27:39;2.70;;;1.47;;
12947;SDS011;6539;49.476;8.484;2022-10-15T11:36:49;2.17;;;1.50;;
12947;SDS011;6539;49.476;8.484;2022-10-15T11:47:24;0.93;;;0.93;;
12947;SDS011;6539;49.476;8.484;2022-10-15T11:56:14;1.20;;;1.10;;
12947;SDS011;6539;49.476;8.484;2022-10-15T11:58:51;1.83;;;1.47;;
12947;SDS011;6539;49.476;8.484;2022-10-15T12:01:26;1.90;;;1.60;;
12947;SDS011;6539;49.476;8.484;2022-10-15T12:07:13;1.97;;;1.40;;
12947;SDS011;6539;49.476;8.484;2022-10-15T12:13:05;1.20;;;1.10;;
12947;SDS011;6539;49.476;8.484;2022-10-15T12:15:57;5.17;;;1.27;;
12947;SDS011;6539;49.476;8.484;2022-10-15T12:24:05;4.87;;;1.53;;
12947;SDS011;6539;49.476;8.484;2022-10-15T12:27:13;3.00;;;1.10;;
12947;SDS011;6539;49.476;8.484;2022-10-15T12:37:38;3.43;;;1.20;;
12947;SDS011;6539;49.476;8.484;2022-10-15T12:42:48;2.00;;;1.17;;
12947;SDS011;6539;49.476;8.484;2022-10-15T12:45:25;2.80;;;1.10;;
12947;SDS011;6539;49.476;8.484;2022-10-15T12:50:33;4.60;;;1.20;;
12947;SDS011;6539;49.476;8.484;2022-10-15T12:56:38;1.63;;;1.13;;
12947;SDS011;6539;49.476;8.484;2022-10-15T12:58:48;3.60;;;1.00;;
12947;SDS011;6539;49.476;8.484;2022-10-15T13:08:53;3.13;;;1.30;;
12947;SDS011;6539;49.476;8.484;2022-10-15T13:16:57;2.60;;;1.57;;
12947;SDS011;6539;49.476;8.484;2022-10-15T13:19:31;1.27;;;1.17;;
12947;SDS011;6539;49.476;8.484;2022-10-15T13:22:23;1.20;;;1.10;;
12947;SDS011;6539;49.476;8.484;2022-10-15T13:24:56;1.60;;;1.50;;
12947;SDS011;6539;49.476;8.484;2022-10-15T13:27:25;4.10;;;1.63;;
12947;SDS011;6539;49.476;8.484;2022-10-15T13:32:39;4.00;;;0.97;;
12947;SDS011;6539;49.476;8.484;2022-10-15T13:35:17;1.80;;;0.90;;
12947;SDS011;6539;49.476;8.484;2022-10-15T13:37:47;1.63;;;1.10;;
12947;SDS011;6539;49.476;8.484;2022-10-15T13:40:21;1.83;;;1.43;;
12947;SDS011;6539;49.476;8.484;2022-10-15T13:43:12;2.10;;;1.20;;
12947;SDS011;6539;49.476;8.484;2022-10-15T13:45:47;1.43;;;1.30;;
12947;SDS011;6539;49.476;8.484;2022-10-15T13:48:24;1.97;;;1.30;;
12947;SDS011;6539;49.476;8.484;2022-10-15T13:50:54;1.10;;;0.97;;
12947;SDS011;6539;49.476;8.484;2022-10-15T13:53:27;1.63;;;1.10;;
12947;SDS011;6539;49.476;8.484;2022-10-15T13:55:59;2.90;;;1.60;;
12947;SDS011;6539;49.476;8.484;2022-10-15T13:58:28;1.97;;;1.57;;
12947;SDS011;6539;49.476;8.484;2022-10-15T14:01:08;1.63;;;1.17;;
12947;SDS011;6539;49.476;8.484;2022-10-15T14:04:00;3.20;;;1.20;;
12947;SDS011;6539;49.476;8.484;2022-10-15T14:06:29;3.37;;;2.10;;
12947;SDS011;6539;49.476;8.484;2022-10-15T14:11:47;2.47;;;1.93;;
12947;SDS011;6539;49.476;8.484;2022-10-15T14:19:45;6.73;;;1.30;;
12947;SDS011;6539;49.476;8.484;2022-10-15T14:22:19;2.33;;;1.40;;
12947;SDS011;6539;49.476;8.484;2022-10-15T14:24:51;3.63;;;1.47;;
12947;SDS011;6539;49.476;8.484;2022-10-15T14:27:20;1.30;;;1.00;;
12947;SDS011;6539;49.476;8.484;2022-10-15T14:29:50;2.50;;;1.17;;
12947;SDS011;6539;49.476;8.484;2022-10-15T14:34:56;2.40;;;1.40;;
12947;SDS011;6539;49.476;8.484;2022-10-15T14:42:42;1.60;;;1.17;;
12947;SDS011;6539;49.476;8.484;2022-10-15T14:47:46;1.33;;;1.03;;
12947;SDS011;6539;49.476;8.484;2022-10-15T14:50:16;3.00;;;1.17;;
12947;SDS011;6539;49.476;8.484;2022-10-15T14:52:48;2.33;;;1.33;;
12947;SDS011;6539;49.476;8.484;2022-10-15T14:58:15;3.00;;;1.20;;
12947;SDS011;6539;49.476;8.484;2022-10-15T15:00:46;1.60;;;1.03;;
12947;SDS011;6539;49.476;8.484;2022-10-15T15:03:25;2.47;;;1.10;;
12947;SDS011;6539;49.476;8.484;2022-10-15T15:06:07;1.97;;;1.13;;
12947;SDS011;6539;49.476;8.484;2022-10-15T15:08:39;3.50;;;1.13;;
12947;SDS011;6539;49.476;8.484;2022-10-15T15:11:09;4.03;;;1.30;;
12947;SDS011;6539;49.476;8.484;2022-10-15T15:13:40;2.53;;;1.20;;
12947;SDS011;6539;49.476;8.484;2022-10-15T15:16:11;1.57;;;1.10;;
12947;SDS011;6539;49.476;8.484;2022-10-15T15:18:42;1.77;;;1.30;;
12947;SDS011;6539;49.476;8.484;2022-10-15T15:21:13;1.10;;;1.10;;
12947;SDS011;6539;49.476;8.484;2022-10-15T15:23:45;3.83;;;1.40;;
12947;SDS011;6539;49.476;8.484;2022-10-15T15:26:12;1.33;;;1.20;;
12947;SDS011;6539;49.476;8.484;2022-10-15T15:28:38;2.43;;;1.20;;
12947;SDS011;6539;49.476;8.484;2022-10-15T15:31:12;2.93;;;1.50;;
12947;SDS011;6539;49.476;8.484;2022-10-15T15:33:41;2.43;;;1.30;;
12947;SDS011;6539;49.476;8.484;2022-10-15T15:36:11;2.90;;;1.40;;
12947;SDS011;6539;49.476;8.484;2022-10-15T15:38:40;2.40;;;1.30;;
12947;SDS011;6539;49.476;8.484;2022-10-15T15:41:12;2.03;;;1.50;;
12947;SDS011;6539;49.476;8.484;2022-10-15T15:43:43;2.07;;;1.47;;
12947;SDS011;6539;49.476;8.484;2022-10-15T15:46:12;3.03;;;1.60;;
12947;SDS011;6539;49.476;8.484;2022-10-15T15:48:39;3.27;;;2.00;;
12947;SDS011;6539;49.476;8.484;2022-10-15T15:53:56;3.40;;;1.67;;
12947;SDS011;6539;49.476;8.484;2022-10-15T15:56:30;2.50;;;1.57;;
12947;SDS011;6539;49.476;8.484;2022-10-15T15:58:57;3.03;;;1.53;;
12947;SDS011;6539;49.476;8.484;2022-10-15T16:01:25;3.03;;;1.50;;
12947;SDS011;6539;49.476;8.484;2022-10-15T16:03:51;4.73;;;1.50;;
12947;SDS011;6539;49.476;8.484;2022-10-15T16:06:17;3.63;;;1.43;;
12947;SDS011;6539;49.476;8.484;2022-10-15T16:08:42;1.83;;;1.30;;
12947;SDS011;6539;49.476;8.484;2022-10-15T16:11:08;3.03;;;1.23;;
12947;SDS011;6539;49.476;8.484;2022-10-15T16:13:34;2.20;;;1.60;;
12947;SDS011;6539;49.476;8.484;2022-10-15T16:16:00;2.57;;;1.40;;
12947;SDS011;6539;49.476;8.484;2022-10-15T16:18:28;3.60;;;1.43;;
12947;SDS011;6539;49.476;8.484;2022-10-15T16:20:54;2.33;;;1.40;;
12947;SDS011;6539;49.476;8.484;2022-10-15T16:23:20;3.33;;;1.53;;
12947;SDS011;6539;49.476;8.484;2022-10-15T16:25:48;2.20;;;1.50;;
12947;SDS011;6539;49.476;8.484;2022-10-15T16:28:14;1.50;;;1.40;;
12947;SDS011;6539;49.476;8.484;2022-10-15T16:30:40;1.63;;;1.40;;
12947;SDS011;6539;49.476;8.484;2022-10-15T16:33:06;2.23;;;1.40;;
12947;SDS011;6539;49.476;8.484;2022-10-15T16:35:34;1.77;;;1.67;;
12947;SDS011;6539;49.476;8.484;2022-10-15T16:38:02;7.53;;;2.07;;
12947;SDS011;6539;49.476;8.484;2022-10-15T16:40:31;1.97;;;1.70;;
12947;SDS011;6539;49.476;8.484;2022-10-15T16:43:00;2.90;;;2.10;;
12947;SDS011;6539;49.476;8.484;2022-10-15T16:45:26;6.40;;;2.00;;
12947;SDS011;6539;49.476;8.484;2022-10-15T16:47:52;5.67;;;2.10;;
12947;SDS011;6539;49.476;8.484;2022-10-15T16:50:18;5.03;;;1.93;;
12947;SDS011;6539;49.476;8.484;2022-10-15T16:52:44;3.83;;;2.03;;
12947;SDS011;6539;49.476;8.484;2022-10-15T16:55:12;2.93;;;2.20;;
12947;SDS011;6539;49.476;8.484;2022-10-15T16:57:38;5.07;;;1.80;;
12947;SDS011;6539;49.476;8.484;2022-10-15T17:00:05;2.37;;;1.70;;
12947;SDS011;6539;49.476;8.484;2022-10-15T17:02:32;3.03;;;1.77;;
12947;SDS011;6539;49.476;8.484;2022-10-15T17:05:00;2.73;;;2.47;;
12947;SDS011;6539;49.476;8.484;2022-10-15T17:07:28;5.40;;;3.70;;
12947;SDS011;6539;49.476;8.484;2022-10-15T17:09:53;4.07;;;2.13;;
12947;SDS011;6539;49.476;8.484;2022-10-15T17:12:19;4.77;;;1.97;;
12947;SDS011;6539;49.476;8.484;2022-10-15T17:14:48;1.87;;;1.67;;
12947;SDS011;6539;49.476;8.484;2022-10-15T17:17:16;2.63;;;1.97;;
12947;SDS011;6539;49.476;8.484;2022-10-15T17:19:43;2.40;;;2.10;;
12947;SDS011;6539;49.476;8.484;2022-10-15T17:22:13;4.30;;;2.57;;
12947;SDS011;6539;49.476;8.484;2022-10-15T17:24:39;2.93;;;1.43;;
12947;SDS011;6539;49.476;8.484;2022-10-15T17:27:06;2.00;;;1.60;;
12947;SDS011;6539;49.476;8.484;2022-10-15T17:29:34;1.90;;;1.63;;
12947;SDS011;6539;49.476;8.484;2022-10-15T17:32:00;3.93;;;1.53;;
12947;SDS011;6539;49.476;8.484;2022-10-15T17:34:26;4.27;;;1.80;;
12947;SDS011;6539;49.476;8.484;2022-10-15T17:36:55;2.17;;;1.47;;
12947;SDS011;6539;49.476;8.484;2022-10-15T17:39:23;2.17;;;1.80;;
12947;SDS011;6539;49.476;8.484;2022-10-15T17:41:50;4.73;;;1.80;;
12947;SDS011;6539;49.476;8.484;2022-10-15T17:44:16;2.97;;;1.50;;
12947;SDS011;6539;49.476;8.484;2022-10-15T17:46:42;1.53;;;1.43;;
12947;SDS011;6539;49.476;8.484;2022-10-15T17:49:08;1.63;;;1.40;;
12947;SDS011;6539;49.476;8.484;2022-10-15T17:51:37;2.23;;;1.90;;
12947;SDS011;6539;49.476;8.484;2022-10-15T17:54:02;1.57;;;1.40;;
12947;SDS011;6539;49.476;8.484;2022-10-15T17:56:30;1.93;;;1.70;;
12947;SDS011;6539;49.476;8.484;2022-10-15T17:58:59;1.43;;;1.33;;
12947;SDS011;6539;49.476;8.484;2022-10-15T18:01:35;2.30;;;1.57;;
12947;SDS011;6539;49.476;8.484;2022-10-15T18:04:04;2.67;;;2.00;;